createdAt,value
2019-01-31T00:00:21.191Z,17.3
2019-01-31T00:01:01.791Z,17.3
2019-01-31T00:01:42.396Z,17.3
2019-01-31T00:02:23.032Z,17.21
2019-01-31T00:03:03.645Z,17.18
2019-01-31T00:03:44.270Z,17.18
2019-01-31T00:04:24.886Z,17.25
2019-01-31T00:05:05.501Z,17.19
2019-01-31T00:05:46.114Z,17.23
2019-01-31T00:06:26.732Z,17.28
2019-01-31T00:07:07.371Z,17.31
2019-01-31T00:07:47.991Z,17.31
2019-01-31T00:08:28.619Z,17.18
2019-01-31T00:09:09.229Z,17.26
2019-01-31T00:09:49.836Z,17.25
2019-01-31T00:10:30.468Z,17.28
2019-01-31T00:11:11.088Z,17.22
2019-01-31T00:11:51.716Z,17.25
2019-01-31T00:12:32.333Z,17.31
2019-01-31T00:13:12.949Z,17.22
2019-01-31T00:13:53.575Z,17.31
2019-01-31T00:14:34.184Z,17.25
2019-01-31T00:15:14.793Z,17.23
2019-01-31T00:15:55.406Z,17.31
2019-01-31T00:16:36.007Z,17.22
2019-01-31T00:17:16.625Z,17.21
2019-01-31T00:17:57.246Z,17.22
2019-01-31T00:18:37.888Z,17.28
2019-01-31T00:19:18.507Z,17.31
2019-01-31T00:19:59.125Z,17.19
2019-01-31T00:20:39.728Z,17.22
2019-01-31T00:21:20.331Z,17.34
2019-01-31T00:22:00.939Z,17.21
2019-01-31T00:22:41.575Z,17.22
2019-01-31T00:23:22.197Z,17.22
2019-01-31T00:24:02.813Z,17.23
2019-01-31T00:24:43.469Z,17.28
2019-01-31T00:25:24.061Z,17.3
2019-01-31T00:26:04.671Z,17.37
2019-01-31T00:26:45.295Z,17.21
2019-01-31T00:27:25.897Z,17.31
2019-01-31T00:28:06.521Z,17.19
2019-01-31T00:28:47.153Z,17.3
2019-01-31T00:29:27.791Z,17.33
2019-01-31T00:30:08.435Z,17.25
2019-01-31T00:30:49.057Z,17.19
2019-01-31T00:31:29.674Z,17.19
2019-01-31T00:32:10.309Z,17.21
2019-01-31T00:32:50.913Z,17.16
2019-01-31T00:33:31.525Z,17.19
2019-01-31T00:34:12.129Z,17.34
2019-01-31T00:34:52.741Z,17.28
2019-01-31T00:35:33.391Z,17.19
2019-01-31T00:36:14.021Z,17.19
2019-01-31T00:36:54.664Z,17.21
2019-01-31T00:37:35.271Z,17.31
2019-01-31T00:38:15.907Z,17.19
2019-01-31T00:38:57.237Z,17.21
2019-01-31T00:39:37.135Z,17.31
2019-01-31T00:40:17.737Z,17.19
2019-01-31T00:40:58.449Z,17.22
2019-01-31T00:41:39.097Z,17.16
2019-01-31T00:42:19.697Z,17.19
2019-01-31T00:43:00.331Z,17.36
2019-01-31T00:43:40.953Z,17.33
2019-01-31T00:44:21.565Z,17.21
2019-01-31T00:45:02.189Z,17.15
2019-01-31T00:45:42.814Z,17.16
2019-01-31T00:46:23.406Z,17.22
2019-01-31T00:47:04.015Z,17.21
2019-01-31T00:47:44.685Z,17.28
2019-01-31T00:48:25.319Z,17.22
2019-01-31T00:49:05.974Z,17.18
2019-01-31T00:49:46.585Z,17.18
2019-01-31T00:50:27.193Z,17.18
2019-01-31T00:51:07.803Z,17.21
2019-01-31T00:51:48.436Z,17.31
2019-01-31T00:52:29.049Z,17.25
2019-01-31T00:53:09.651Z,17.18
2019-01-31T00:53:50.267Z,17.18
2019-01-31T00:54:30.871Z,17.21
2019-01-31T00:55:11.457Z,17.19
2019-01-31T00:55:52.068Z,17.3
2019-01-31T00:56:32.691Z,17.36
2019-01-31T00:57:13.293Z,17.23
2019-01-31T00:57:53.919Z,17.21
2019-01-31T00:58:34.527Z,17.21
2019-01-31T00:59:15.137Z,17.21
2019-01-31T00:59:55.773Z,17.26
2019-01-31T01:00:36.379Z,17.23
2019-01-31T01:01:16.989Z,17.33
2019-01-31T01:01:57.587Z,17.18
2019-01-31T01:02:38.202Z,17.21
2019-01-31T01:03:18.811Z,17.21
2019-01-31T01:03:59.421Z,17.26
2019-01-31T01:04:40.029Z,17.14
2019-01-31T01:05:20.659Z,17.19
2019-01-31T01:06:01.297Z,17.26
2019-01-31T01:06:41.899Z,17.18
2019-01-31T01:07:22.515Z,17.21
2019-01-31T01:08:03.135Z,17.18
2019-01-31T01:08:43.739Z,17.22
2019-01-31T01:09:24.396Z,17.33
2019-01-31T01:10:05.011Z,17.19
2019-01-31T01:10:45.646Z,17.3
2019-01-31T01:11:26.259Z,17.28
2019-01-31T01:12:06.865Z,17.21
2019-01-31T01:12:47.474Z,17.25
2019-01-31T01:13:28.097Z,17.23
2019-01-31T01:14:08.749Z,17.19
2019-01-31T01:14:49.349Z,17.16
2019-01-31T01:15:29.963Z,17.18
2019-01-31T01:16:10.602Z,17.22
2019-01-31T01:16:51.229Z,17.19
2019-01-31T01:17:31.825Z,17.21
2019-01-31T01:18:12.429Z,17.22
2019-01-31T01:18:53.065Z,17.18
2019-01-31T01:19:33.673Z,17.26
2019-01-31T01:20:14.322Z,17.21
2019-01-31T01:20:54.925Z,17.19
2019-01-31T01:21:35.537Z,17.16
2019-01-31T01:22:16.150Z,17.23
2019-01-31T01:22:56.761Z,17.23
2019-01-31T01:23:37.351Z,17.19
2019-01-31T01:24:17.965Z,17.19
2019-01-31T01:24:58.607Z,17.21
2019-01-31T01:25:39.217Z,17.19
2019-01-31T01:26:19.818Z,17.18
2019-01-31T01:27:00.439Z,17.16
2019-01-31T01:27:41.049Z,17.23
2019-01-31T01:28:21.649Z,17.21
2019-01-31T01:29:02.267Z,17.21
2019-01-31T01:29:42.898Z,17.21
2019-01-31T01:30:23.497Z,17.21
2019-01-31T01:31:04.103Z,17.22
2019-01-31T01:31:44.725Z,17.19
2019-01-31T01:32:25.334Z,17.21
2019-01-31T01:33:05.972Z,17.19
2019-01-31T01:33:46.600Z,17.21
2019-01-31T01:34:27.229Z,17.25
2019-01-31T01:35:07.858Z,17.18
2019-01-31T01:35:48.479Z,17.16
2019-01-31T01:36:29.083Z,17.18
2019-01-31T01:37:09.715Z,17.23
2019-01-31T01:37:50.338Z,17.22
2019-01-31T01:38:30.953Z,17.23
2019-01-31T01:39:18.803Z,17.18
2019-01-31T01:39:52.179Z,17.18
2019-01-31T01:40:32.783Z,17.21
2019-01-31T01:41:13.390Z,17.22
2019-01-31T01:41:54.007Z,17.21
2019-01-31T01:42:34.602Z,17.19
2019-01-31T01:43:15.205Z,17.21
2019-01-31T01:43:55.805Z,17.23
2019-01-31T01:44:36.425Z,17.19
2019-01-31T01:45:17.035Z,17.22
2019-01-31T01:45:57.663Z,17.19
2019-01-31T01:46:38.267Z,17.19
2019-01-31T01:47:18.879Z,17.19
2019-01-31T01:47:59.503Z,17.18
2019-01-31T01:48:40.110Z,17.18
2019-01-31T01:49:20.725Z,17.22
2019-01-31T01:50:01.355Z,17.22
2019-01-31T01:50:41.961Z,17.19
2019-01-31T01:51:22.623Z,17.19
2019-01-31T01:52:03.233Z,17.19
2019-01-31T01:52:43.841Z,17.25
2019-01-31T01:53:24.445Z,17.19
2019-01-31T01:54:05.051Z,17.23
2019-01-31T01:54:45.663Z,17.21
2019-01-31T01:55:26.325Z,17.15
2019-01-31T01:56:06.937Z,17.25
2019-01-31T01:56:47.538Z,17.22
2019-01-31T01:57:28.145Z,17.21
2019-01-31T01:58:08.755Z,17.21
2019-01-31T01:58:49.365Z,17.28
2019-01-31T01:59:30.009Z,17.21
2019-01-31T02:00:10.617Z,17.16
2019-01-31T02:00:51.229Z,17.15
2019-01-31T02:01:31.837Z,17.15
2019-01-31T02:02:12.479Z,17.15
2019-01-31T02:02:53.095Z,17.19
2019-01-31T02:03:33.720Z,17.16
2019-01-31T02:04:14.311Z,17.19
2019-01-31T02:04:54.929Z,17.16
2019-01-31T02:05:35.527Z,17.19
2019-01-31T02:06:16.143Z,17.19
2019-01-31T02:06:56.764Z,17.15
2019-01-31T02:07:37.388Z,17.23
2019-01-31T02:08:18.004Z,17.21
2019-01-31T02:08:58.606Z,17.22
2019-01-31T02:09:39.262Z,17.22
2019-01-31T02:10:19.881Z,17.21
2019-01-31T02:11:00.493Z,17.19
2019-01-31T02:11:41.117Z,17.18
2019-01-31T02:12:21.733Z,17.19
2019-01-31T02:13:02.345Z,17.22
2019-01-31T02:13:42.967Z,17.22
2019-01-31T02:14:23.607Z,17.22
2019-01-31T02:15:04.223Z,17.18
2019-01-31T02:15:44.835Z,17.21
2019-01-31T02:16:25.445Z,17.21
2019-01-31T02:17:06.043Z,17.21
2019-01-31T02:17:46.663Z,17.21
2019-01-31T02:18:27.273Z,17.25
2019-01-31T02:19:07.886Z,17.22
2019-01-31T02:19:48.489Z,17.18
2019-01-31T02:20:29.105Z,17.23
2019-01-31T02:21:09.733Z,17.23
2019-01-31T02:21:50.354Z,17.23
2019-01-31T02:22:30.944Z,17.18
2019-01-31T02:23:11.551Z,17.26
2019-01-31T02:23:52.173Z,17.18
2019-01-31T02:24:32.802Z,17.21
2019-01-31T02:25:13.415Z,17.26
2019-01-31T02:25:54.054Z,17.22
2019-01-31T02:26:34.649Z,17.16
2019-01-31T02:27:15.270Z,17.19
2019-01-31T02:27:55.871Z,17.18
2019-01-31T02:28:36.490Z,17.15
2019-01-31T02:29:17.123Z,17.25
2019-01-31T02:29:57.735Z,17.23
2019-01-31T02:30:38.405Z,17.19
2019-01-31T02:31:18.963Z,17.16
2019-01-31T02:31:59.570Z,17.23
2019-01-31T02:32:40.205Z,17.19
2019-01-31T02:33:20.814Z,17.22
2019-01-31T02:34:01.433Z,17.18
2019-01-31T02:34:42.047Z,17.16
2019-01-31T02:35:22.762Z,17.23
2019-01-31T02:36:05.108Z,17.21
2019-01-31T02:36:43.883Z,17.21
2019-01-31T02:37:24.483Z,17.23
2019-01-31T02:38:05.103Z,17.19
2019-01-31T02:38:45.730Z,17.19
2019-01-31T02:39:26.346Z,17.21
2019-01-31T02:40:06.998Z,17.23
2019-01-31T02:40:47.621Z,17.18
2019-01-31T02:41:28.244Z,17.22
2019-01-31T02:42:08.871Z,17.23
2019-01-31T02:42:49.474Z,17.23
2019-01-31T02:43:30.091Z,17.22
2019-01-31T02:44:10.717Z,17.25
2019-01-31T02:44:51.351Z,17.21
2019-01-31T02:45:31.958Z,17.21
2019-01-31T02:46:12.593Z,17.21
2019-01-31T02:46:53.202Z,17.22
2019-01-31T02:47:33.808Z,17.21
2019-01-31T02:48:14.447Z,17.16
2019-01-31T02:48:55.059Z,17.23
2019-01-31T02:49:35.718Z,17.15
2019-01-31T02:50:16.331Z,17.22
2019-01-31T02:50:56.930Z,17.18
2019-01-31T02:51:37.535Z,17.21
2019-01-31T02:52:18.137Z,17.19
2019-01-31T02:52:58.749Z,17.21
2019-01-31T02:53:39.357Z,17.18
2019-01-31T02:54:19.969Z,17.16
2019-01-31T02:55:00.684Z,17.21
2019-01-31T02:55:41.185Z,17.21
2019-01-31T02:56:21.791Z,17.16
2019-01-31T02:57:02.397Z,17.21
2019-01-31T02:57:42.994Z,17.18
2019-01-31T02:58:23.609Z,17.21
2019-01-31T02:59:04.221Z,17.16
2019-01-31T02:59:44.835Z,17.16
2019-01-31T03:00:25.443Z,17.21
2019-01-31T03:01:06.038Z,17.16
2019-01-31T03:01:46.660Z,17.16
2019-01-31T03:02:27.270Z,17.16
2019-01-31T03:03:07.863Z,17.16
2019-01-31T03:03:48.465Z,17.19
2019-01-31T03:04:29.069Z,17.21
2019-01-31T03:05:09.703Z,17.21
2019-01-31T03:05:50.313Z,17.22
2019-01-31T03:06:30.936Z,17.14
2019-01-31T03:07:11.546Z,17.19
2019-01-31T03:07:52.161Z,17.15
2019-01-31T03:08:32.908Z,17.15
2019-01-31T03:09:13.526Z,17.18
2019-01-31T03:09:55.061Z,17.18
2019-01-31T03:10:34.737Z,17.18
2019-01-31T03:11:15.371Z,17.23
2019-01-31T03:11:55.996Z,17.22
2019-01-31T03:12:36.630Z,17.19
2019-01-31T03:13:17.241Z,17.21
2019-01-31T03:14:09.418Z,17.21
2019-01-31T03:14:38.449Z,17.23
2019-01-31T03:15:19.067Z,17.18
2019-01-31T03:15:59.682Z,17.18
2019-01-31T03:16:40.291Z,17.21
2019-01-31T03:17:20.899Z,17.21
2019-01-31T03:18:01.498Z,17.21
2019-01-31T03:18:42.111Z,17.19
2019-01-31T03:19:22.722Z,17.15
2019-01-31T03:20:03.334Z,17.19
2019-01-31T03:20:43.967Z,17.22
2019-01-31T03:21:24.580Z,17.18
2019-01-31T03:22:05.193Z,17.23
2019-01-31T03:22:45.812Z,17.18
2019-01-31T03:23:26.412Z,17.19
2019-01-31T03:24:07.025Z,17.16
2019-01-31T03:24:47.639Z,17.22
2019-01-31T03:25:28.247Z,17.18
2019-01-31T03:26:08.863Z,17.12
2019-01-31T03:26:49.484Z,17.19
2019-01-31T03:27:30.095Z,17.16
2019-01-31T03:28:10.703Z,17.22
2019-01-31T03:28:51.318Z,17.16
2019-01-31T03:29:31.918Z,17.16
2019-01-31T03:30:12.518Z,17.16
2019-01-31T03:30:53.124Z,17.19
2019-01-31T03:31:33.718Z,17.18
2019-01-31T03:32:14.336Z,17.21
2019-01-31T03:32:54.936Z,17.23
2019-01-31T03:33:35.553Z,17.14
2019-01-31T03:34:16.159Z,17.15
2019-01-31T03:34:56.767Z,17.21
2019-01-31T03:35:37.496Z,17.19
2019-01-31T03:36:17.989Z,17.14
2019-01-31T03:36:58.606Z,17.19
2019-01-31T03:37:39.245Z,17.16
2019-01-31T03:38:19.853Z,17.14
2019-01-31T03:39:00.468Z,17.15
2019-01-31T03:39:41.089Z,17.19
2019-01-31T03:40:21.685Z,17.18
2019-01-31T03:41:02.299Z,17.16
2019-01-31T03:41:42.937Z,17.21
2019-01-31T03:42:23.550Z,17.14
2019-01-31T03:43:04.163Z,17.18
2019-01-31T03:43:44.802Z,17.21
2019-01-31T03:44:25.425Z,17.21
2019-01-31T03:45:06.031Z,17.22
2019-01-31T03:45:46.659Z,17.18
2019-01-31T03:46:27.267Z,17.18
2019-01-31T03:47:07.972Z,17.16
2019-01-31T03:47:48.471Z,17.11
2019-01-31T03:48:29.110Z,17.16
2019-01-31T03:49:09.719Z,17.18
2019-01-31T03:49:50.337Z,17.18
2019-01-31T03:50:30.959Z,17.23
2019-01-31T03:51:11.576Z,17.21
2019-01-31T03:51:52.188Z,17.18
2019-01-31T03:52:32.793Z,17.21
2019-01-31T03:53:13.419Z,17.21
2019-01-31T03:53:54.051Z,17.14
2019-01-31T03:54:34.650Z,17.16
2019-01-31T03:55:15.262Z,17.18
2019-01-31T03:55:55.859Z,17.18
2019-01-31T03:56:36.497Z,17.21
2019-01-31T03:57:17.102Z,17.16
2019-01-31T03:57:57.716Z,17.18
2019-01-31T03:58:38.311Z,17.15
2019-01-31T03:59:18.932Z,17.21
2019-01-31T03:59:59.550Z,17.15
2019-01-31T04:00:40.177Z,17.16
2019-01-31T04:01:20.776Z,17.08
2019-01-31T04:02:01.369Z,17.15
2019-01-31T04:02:41.972Z,17.11
2019-01-31T04:03:22.575Z,17.15
2019-01-31T04:04:03.197Z,17.11
2019-01-31T04:04:43.836Z,17.11
2019-01-31T04:05:24.442Z,17.14
2019-01-31T04:06:05.090Z,17.14
2019-01-31T04:06:45.741Z,17.11
2019-01-31T04:07:26.337Z,17.12
2019-01-31T04:08:06.939Z,17.12
2019-01-31T04:08:47.550Z,17.08
2019-01-31T04:09:28.183Z,17.18
2019-01-31T04:10:18.577Z,17.11
2019-01-31T04:10:49.404Z,17.12
2019-01-31T04:11:29.999Z,17.19
2019-01-31T04:12:10.610Z,17.18
2019-01-31T04:12:51.247Z,17.08
2019-01-31T04:13:31.868Z,17.18
2019-01-31T04:14:12.473Z,17.16
2019-01-31T04:14:53.104Z,17.14
2019-01-31T04:15:33.707Z,17.16
2019-01-31T04:16:14.363Z,17.11
2019-01-31T04:16:54.971Z,17.23
2019-01-31T04:17:35.608Z,17.18
2019-01-31T04:18:16.208Z,17.14
2019-01-31T04:18:56.854Z,17.16
2019-01-31T04:19:37.470Z,17.14
2019-01-31T04:20:18.083Z,17.07
2019-01-31T04:20:58.695Z,17.14
2019-01-31T04:21:39.345Z,17.12
2019-01-31T04:22:19.949Z,17.15
2019-01-31T04:23:00.582Z,17.12
2019-01-31T04:23:41.215Z,17.14
2019-01-31T04:24:21.834Z,17.21
2019-01-31T04:25:02.453Z,17.07
2019-01-31T04:25:43.051Z,17.07
2019-01-31T04:26:23.671Z,17.06
2019-01-31T04:27:04.302Z,17.14
2019-01-31T04:27:44.899Z,17.11
2019-01-31T04:28:25.565Z,17.08
2019-01-31T04:29:06.165Z,17.07
2019-01-31T04:29:46.879Z,17.06
2019-01-31T04:30:27.503Z,17.11
2019-01-31T04:31:08.119Z,17.11
2019-01-31T04:31:48.727Z,17.12
2019-01-31T04:32:29.395Z,17.12
2019-01-31T04:33:10.093Z,17.08
2019-01-31T04:33:50.702Z,17.11
2019-01-31T04:34:31.313Z,17.15
2019-01-31T04:35:12.031Z,17.07
2019-01-31T04:35:52.524Z,17.04
2019-01-31T04:36:33.154Z,17.07
2019-01-31T04:37:13.790Z,17.14
2019-01-31T04:37:54.404Z,17.07
2019-01-31T04:38:35.052Z,17.11
2019-01-31T04:39:15.655Z,17.14
2019-01-31T04:39:56.286Z,17.06
2019-01-31T04:40:36.900Z,17.16
2019-01-31T04:41:17.508Z,17.08
2019-01-31T04:41:58.120Z,17.11
2019-01-31T04:42:38.749Z,17.07
2019-01-31T04:43:19.369Z,17.07
2019-01-31T04:43:59.972Z,17.07
2019-01-31T04:44:40.592Z,17.14
2019-01-31T04:45:21.203Z,17.12
2019-01-31T04:46:01.834Z,17.07
2019-01-31T04:46:42.445Z,17.07
2019-01-31T04:47:23.071Z,17.06
2019-01-31T04:48:03.699Z,17.06
2019-01-31T04:48:44.304Z,17.06
2019-01-31T04:49:24.950Z,17.14
2019-01-31T04:50:05.569Z,17.08
2019-01-31T04:50:46.182Z,17.11
2019-01-31T04:51:26.787Z,17.07
2019-01-31T04:52:07.399Z,17.12
2019-01-31T04:52:48.042Z,17.07
2019-01-31T04:53:28.658Z,17.06
2019-01-31T04:54:09.264Z,17.07
2019-01-31T04:54:49.938Z,17.08
2019-01-31T04:55:30.609Z,17.08
2019-01-31T04:56:11.299Z,17.15
2019-01-31T04:56:51.936Z,17.16
2019-01-31T04:57:32.603Z,17.11
2019-01-31T04:58:13.187Z,17.06
2019-01-31T04:58:53.813Z,17.08
2019-01-31T04:59:34.438Z,17.07
2019-01-31T05:00:15.060Z,17.06
2019-01-31T05:00:55.664Z,17.07
2019-01-31T05:01:36.264Z,17.15
2019-01-31T05:02:16.884Z,17.14
2019-01-31T05:02:57.508Z,17.07
2019-01-31T05:03:38.117Z,17.12
2019-01-31T05:04:18.742Z,17.14
2019-01-31T05:04:59.375Z,17.08
2019-01-31T05:05:39.978Z,17.07
2019-01-31T05:06:20.603Z,17.07
2019-01-31T05:07:01.202Z,17.11
2019-01-31T05:07:41.828Z,17.06
2019-01-31T05:08:22.511Z,17.15
2019-01-31T05:09:03.117Z,17.07
2019-01-31T05:09:43.760Z,17.07
2019-01-31T05:10:24.439Z,17.14
2019-01-31T05:11:05.076Z,17.07
2019-01-31T05:11:45.817Z,17.11
2019-01-31T05:12:26.427Z,17.07
2019-01-31T05:13:07.031Z,17.07
2019-01-31T05:13:47.697Z,17.08
2019-01-31T05:14:28.280Z,17.08
2019-01-31T05:15:08.918Z,17.11
2019-01-31T05:15:49.524Z,17.08
2019-01-31T05:16:30.153Z,17.14
2019-01-31T05:17:10.798Z,17.08
2019-01-31T05:17:51.442Z,17.08
2019-01-31T05:18:32.053Z,17.07
2019-01-31T05:19:12.650Z,17.07
2019-01-31T05:19:53.269Z,17.07
2019-01-31T05:20:33.869Z,17.04
2019-01-31T05:21:14.465Z,17.14
2019-01-31T05:21:55.095Z,17.15
2019-01-31T05:22:35.709Z,17.12
2019-01-31T05:23:16.319Z,17.08
2019-01-31T05:23:57.165Z,17.07
2019-01-31T05:24:37.674Z,17.08
2019-01-31T05:25:18.278Z,17.15
2019-01-31T05:25:58.918Z,17.07
2019-01-31T05:26:39.572Z,17.07
2019-01-31T05:27:20.176Z,17.11
2019-01-31T05:28:00.772Z,17.14
2019-01-31T05:28:41.386Z,17.12
2019-01-31T05:29:22.003Z,17.07
2019-01-31T05:30:02.620Z,17.06
2019-01-31T05:30:43.242Z,17.11
2019-01-31T05:31:23.904Z,17.14
2019-01-31T05:32:04.692Z,17.06
2019-01-31T05:32:45.351Z,17.06
2019-01-31T05:33:25.976Z,17.06
2019-01-31T05:34:06.713Z,17.07
2019-01-31T05:34:47.420Z,17.11
2019-01-31T05:35:28.038Z,17.07
2019-01-31T05:36:08.628Z,17.07
2019-01-31T05:36:49.230Z,17.12
2019-01-31T05:37:29.864Z,17.07
2019-01-31T05:38:10.483Z,17.07
2019-01-31T05:38:51.122Z,17.06
2019-01-31T05:39:31.734Z,17.08
2019-01-31T05:40:12.350Z,17.07
2019-01-31T05:40:55.365Z,17.08
2019-01-31T05:41:33.568Z,17.08
2019-01-31T05:42:14.207Z,17.11
2019-01-31T05:42:54.830Z,17.11
2019-01-31T05:43:35.443Z,17.08
2019-01-31T05:44:16.052Z,17.07
2019-01-31T05:44:56.660Z,17.03
2019-01-31T05:45:37.265Z,17.08
2019-01-31T05:46:18.381Z,17.15
2019-01-31T05:46:58.500Z,17.08
2019-01-31T05:47:39.103Z,17.06
2019-01-31T05:48:19.739Z,17.07
2019-01-31T05:49:00.356Z,17.07
2019-01-31T05:49:40.966Z,17.07
2019-01-31T05:50:21.576Z,17.07
2019-01-31T05:51:02.172Z,17.11
2019-01-31T05:51:42.780Z,17.04
2019-01-31T05:52:23.386Z,17.12
2019-01-31T05:53:04.023Z,17.07
2019-01-31T05:53:44.619Z,17.07
2019-01-31T05:54:25.224Z,17.15
2019-01-31T05:55:05.882Z,17.11
2019-01-31T05:55:46.480Z,17.14
2019-01-31T05:56:27.080Z,17
2019-01-31T05:57:07.721Z,17.04
2019-01-31T05:57:48.342Z,17.06
2019-01-31T05:58:28.975Z,17.03
2019-01-31T05:59:09.656Z,17.08
2019-01-31T05:59:50.206Z,17.08
2019-01-31T06:00:30.800Z,17.04
2019-01-31T06:01:11.420Z,17.11
2019-01-31T06:01:52.050Z,17.03
2019-01-31T06:02:32.646Z,17.08
2019-01-31T06:03:13.264Z,17.06
2019-01-31T06:03:53.904Z,17.14
2019-01-31T06:04:34.512Z,17.12
2019-01-31T06:05:15.123Z,17.07
2019-01-31T06:05:55.718Z,17.06
2019-01-31T06:06:36.327Z,17.04
2019-01-31T06:07:16.966Z,17.01
2019-01-31T06:07:57.578Z,17.11
2019-01-31T06:08:38.188Z,17.01
2019-01-31T06:09:18.782Z,17.07
2019-01-31T06:09:59.391Z,17.11
2019-01-31T06:10:39.990Z,17.06
2019-01-31T06:11:20.604Z,17.07
2019-01-31T06:12:01.213Z,17.06
2019-01-31T06:12:41.821Z,17.04
2019-01-31T06:13:22.420Z,17.08
2019-01-31T06:14:03.034Z,17.03
2019-01-31T06:14:43.648Z,17.04
2019-01-31T06:15:24.246Z,17.07
2019-01-31T06:16:06.831Z,17.01
2019-01-31T06:16:45.499Z,17.07
2019-01-31T06:17:26.090Z,17.03
2019-01-31T06:18:06.690Z,17.01
2019-01-31T06:18:47.290Z,17.06
2019-01-31T06:19:27.890Z,17.11
2019-01-31T06:20:08.492Z,17.07
2019-01-31T06:20:49.112Z,17.14
2019-01-31T06:21:29.708Z,17.11
2019-01-31T06:22:10.307Z,17.06
2019-01-31T06:22:50.939Z,17.06
2019-01-31T06:23:31.566Z,17.07
2019-01-31T06:24:12.163Z,17.11
2019-01-31T06:24:52.774Z,17.15
2019-01-31T06:25:33.392Z,17
2019-01-31T06:26:14.022Z,17.07
2019-01-31T06:26:54.626Z,17.12
2019-01-31T06:27:35.278Z,17.04
2019-01-31T06:28:15.887Z,17.06
2019-01-31T06:28:56.568Z,17.12
2019-01-31T06:29:37.158Z,17.12
2019-01-31T06:30:17.812Z,17.07
2019-01-31T06:30:58.435Z,17.03
2019-01-31T06:31:39.060Z,17.07
2019-01-31T06:32:19.740Z,17.04
2019-01-31T06:33:00.394Z,17.12
2019-01-31T06:33:41.011Z,17.11
2019-01-31T06:34:21.629Z,17.07
2019-01-31T06:35:02.226Z,17.03
2019-01-31T06:35:42.826Z,17.11
2019-01-31T06:36:23.504Z,17.15
2019-01-31T06:37:04.122Z,17.14
2019-01-31T06:37:44.782Z,17.06
2019-01-31T06:38:25.388Z,17.11
2019-01-31T06:39:06.008Z,17.12
2019-01-31T06:39:46.791Z,17.03
2019-01-31T06:40:27.467Z,17.11
2019-01-31T06:41:17.922Z,17.04
2019-01-31T06:41:48.703Z,17.11
2019-01-31T06:42:29.300Z,17.07
2019-01-31T06:43:12.056Z,17.06
2019-01-31T06:43:50.587Z,17.06
2019-01-31T06:44:31.238Z,17.01
2019-01-31T06:45:11.848Z,17.14
2019-01-31T06:45:52.463Z,17.03
2019-01-31T06:46:33.074Z,17.03
2019-01-31T06:47:13.682Z,17.11
2019-01-31T06:47:54.292Z,17.06
2019-01-31T06:48:34.910Z,17.15
2019-01-31T06:49:15.511Z,17.12
2019-01-31T06:49:56.156Z,17.14
2019-01-31T06:50:36.762Z,17.06
2019-01-31T06:51:17.388Z,17.06
2019-01-31T06:51:58.140Z,17.11
2019-01-31T06:52:38.844Z,17.01
2019-01-31T06:53:19.428Z,17.11
2019-01-31T06:54:00.058Z,17.01
2019-01-31T06:54:40.658Z,17.04
2019-01-31T06:55:21.279Z,17.14
2019-01-31T06:56:01.900Z,17.06
2019-01-31T06:56:42.539Z,17.06
2019-01-31T06:57:23.150Z,17.03
2019-01-31T06:58:03.755Z,17.01
2019-01-31T06:58:44.390Z,17.06
2019-01-31T06:59:24.990Z,17.07
2019-01-31T07:00:05.627Z,17.04
2019-01-31T07:00:46.236Z,17.15
2019-01-31T07:01:26.868Z,17.04
2019-01-31T07:02:07.468Z,17.06
2019-01-31T07:02:48.088Z,17.07
2019-01-31T07:03:28.710Z,17.01
2019-01-31T07:04:11.085Z,17.11
2019-01-31T07:04:49.934Z,17.03
2019-01-31T07:05:30.568Z,17.06
2019-01-31T07:06:11.178Z,17.11
2019-01-31T07:06:51.804Z,17.07
2019-01-31T07:07:32.388Z,17.04
2019-01-31T07:08:12.996Z,17.07
2019-01-31T07:08:53.606Z,17.14
2019-01-31T07:09:34.237Z,17.03
2019-01-31T07:10:14.848Z,17.11
2019-01-31T07:10:55.462Z,17.11
2019-01-31T07:11:36.074Z,17.15
2019-01-31T07:12:16.750Z,17.14
2019-01-31T07:12:57.364Z,17.15
2019-01-31T07:13:37.987Z,17.06
2019-01-31T07:14:18.652Z,17.07
2019-01-31T07:14:59.260Z,17.16
2019-01-31T07:15:39.874Z,17.12
2019-01-31T07:16:20.504Z,17.07
2019-01-31T07:17:01.138Z,17.12
2019-01-31T07:17:41.832Z,17.08
2019-01-31T07:18:22.444Z,17.06
2019-01-31T07:19:03.078Z,17.11
2019-01-31T07:19:43.738Z,17.01
2019-01-31T07:20:24.330Z,17.16
2019-01-31T07:21:04.932Z,17.11
2019-01-31T07:21:45.542Z,17.12
2019-01-31T07:22:26.147Z,17.04
2019-01-31T07:23:06.769Z,17.04
2019-01-31T07:23:47.398Z,17.04
2019-01-31T07:24:28.012Z,17.04
2019-01-31T07:25:08.658Z,17.12
2019-01-31T07:25:49.305Z,17.04
2019-01-31T07:26:29.958Z,17.08
2019-01-31T07:27:10.560Z,17.11
2019-01-31T07:27:51.180Z,17.12
2019-01-31T07:28:31.778Z,17.06
2019-01-31T07:29:12.452Z,17.07
2019-01-31T07:29:53.134Z,17.08
2019-01-31T07:30:33.732Z,17.11
2019-01-31T07:31:14.374Z,17.11
2019-01-31T07:31:55.041Z,17.11
2019-01-31T07:32:35.646Z,17.07
2019-01-31T07:33:16.270Z,17.11
2019-01-31T07:33:56.864Z,17.14
2019-01-31T07:34:37.472Z,17.14
2019-01-31T07:35:18.078Z,17.04
2019-01-31T07:35:58.684Z,17.08
2019-01-31T07:36:39.306Z,17.11
2019-01-31T07:37:19.934Z,17.08
2019-01-31T07:38:00.568Z,17.08
2019-01-31T07:38:41.185Z,17.08
2019-01-31T07:39:21.804Z,17.07
2019-01-31T07:40:02.440Z,17.11
2019-01-31T07:40:43.088Z,17.11
2019-01-31T07:41:23.704Z,17.11
2019-01-31T07:42:04.320Z,17.06
2019-01-31T07:42:44.940Z,17.06
2019-01-31T07:43:25.552Z,17.08
2019-01-31T07:44:06.176Z,17.11
2019-01-31T07:44:46.812Z,17.11
2019-01-31T07:45:27.424Z,17.06
2019-01-31T07:46:08.018Z,17.06
2019-01-31T07:46:48.623Z,17.11
2019-01-31T07:47:29.264Z,17.11
2019-01-31T07:48:09.864Z,17.14
2019-01-31T07:48:50.488Z,17.07
2019-01-31T07:49:31.109Z,17.11
2019-01-31T07:50:11.724Z,17.11
2019-01-31T07:50:52.334Z,17.07
2019-01-31T07:51:32.934Z,17.11
2019-01-31T07:52:13.556Z,17.07
2019-01-31T07:52:54.203Z,17.14
2019-01-31T07:53:34.836Z,17.08
2019-01-31T07:54:15.440Z,17.08
2019-01-31T07:54:56.054Z,17.06
2019-01-31T07:55:36.661Z,17.11
2019-01-31T07:56:17.270Z,17.14
2019-01-31T07:56:57.884Z,17.11
2019-01-31T07:57:38.528Z,17.11
2019-01-31T07:58:20.564Z,17.16
2019-01-31T07:58:59.750Z,17.12
2019-01-31T07:59:40.367Z,17.12
2019-01-31T08:00:20.982Z,17.12
2019-01-31T08:01:01.596Z,17.16
2019-01-31T08:01:42.180Z,17.12
2019-01-31T08:02:22.838Z,17.11
2019-01-31T08:03:03.442Z,17.07
2019-01-31T08:03:44.054Z,17.08
2019-01-31T08:04:24.660Z,17.12
2019-01-31T08:05:05.297Z,17.08
2019-01-31T08:05:45.931Z,17.14
2019-01-31T08:06:26.545Z,17.14
2019-01-31T08:07:07.194Z,17.12
2019-01-31T08:07:47.826Z,17.12
2019-01-31T08:08:28.450Z,17.11
2019-01-31T08:09:09.086Z,17.08
2019-01-31T08:09:49.713Z,17.21
2019-01-31T08:10:30.304Z,17.15
2019-01-31T08:11:10.911Z,17.12
2019-01-31T08:11:52.885Z,17.14
2019-01-31T08:12:34.550Z,17.18
2019-01-31T08:13:12.782Z,17.15
2019-01-31T08:13:53.384Z,17.07
2019-01-31T08:14:34.012Z,17.14
2019-01-31T08:15:14.699Z,17.18
2019-01-31T08:15:55.252Z,17.22
2019-01-31T08:16:35.852Z,17.15
2019-01-31T08:17:16.452Z,17.16
2019-01-31T08:17:57.064Z,17.12
2019-01-31T08:18:37.815Z,17.21
2019-01-31T08:19:18.291Z,17.14
2019-01-31T08:19:58.918Z,17.11
2019-01-31T08:20:39.532Z,17.15
2019-01-31T08:21:20.134Z,17.18
2019-01-31T08:22:00.734Z,17.14
2019-01-31T08:22:41.330Z,17.15
2019-01-31T08:23:21.946Z,17.14
2019-01-31T08:24:02.612Z,17.21
2019-01-31T08:24:43.212Z,17.07
2019-01-31T08:25:23.868Z,17.18
2019-01-31T08:26:04.478Z,17.16
2019-01-31T08:26:45.184Z,17.19
2019-01-31T08:27:25.710Z,17.15
2019-01-31T08:28:06.301Z,17.14
2019-01-31T08:28:46.949Z,17.15
2019-01-31T08:29:27.612Z,17.15
2019-01-31T08:30:08.231Z,17.16
2019-01-31T08:30:48.830Z,17.21
2019-01-31T08:31:29.480Z,17.21
2019-01-31T08:32:10.211Z,17.16
2019-01-31T08:32:50.708Z,17.14
2019-01-31T08:33:31.336Z,17.21
2019-01-31T08:34:11.964Z,17.14
2019-01-31T08:34:52.560Z,17.18
2019-01-31T08:35:33.224Z,17.08
2019-01-31T08:36:13.836Z,17.21
2019-01-31T08:36:54.438Z,17.14
2019-01-31T08:37:35.070Z,17.19
2019-01-31T08:38:15.704Z,17.15
2019-01-31T08:38:56.310Z,17.18
2019-01-31T08:39:36.918Z,17.16
2019-01-31T08:40:17.515Z,17.18
2019-01-31T08:40:58.115Z,17.22
2019-01-31T08:41:38.799Z,17.16
2019-01-31T08:42:19.414Z,17.14
2019-01-31T08:43:00.048Z,17.15
2019-01-31T08:43:40.654Z,17.21